Terminal Aerodrome Forecast
Issued by NWS

Home | Current Version | Previous Version | Text Only | Print | Product List | Glossary Off
Versions: 1 2 3 4 5 6 7 8 9 10 11 12

000
FTUS43 KDDC 062336
TAFHYS
TAF
KHYS 062336Z 0700/0724 18015G25KT P6SM BKN200
     FM070500 18012KT P6SM SCT250 WS004/23045KT
     FM071400 19020G30KT P6SM SKC=

USA.gov is the U.S. government's official web portal to all federal, state and local government web resources and services.